AirNav   Phillips 66 Aviation Fuel
 
 1167 users online  

0NJ1 Berkeley Township Police Heliport
Bayville, New Jersey, USA

GOING TO BAYVILLE?


FAA INFORMATION EFFECTIVE 01 FEBRUARY 2018

Location

FAA Identifier: 0NJ1
Lat/Long: 39-54-26.4250N / 074-14-05.5120W
39-54.440417N / 074-14.091867W
39.9073403 / -74.2348644
(estimated)
Elevation: 54 ft. / 16 m (estimated)
Variation: 12W (1990)
Time zone: UTC -5 (UTC -4 during Daylight Saving Time)
Zip code: 08721

Heliport Operations

Heliport use: Private use. Permission required prior to landing
Activation date: 04/1993
Control tower: no
ARTCC: NEW YORK CENTER
FSS: MILLVILLE FLIGHT SERVICE STATION
Attendance: DAWN-DUSK
Wind indicator: yes
Segmented circle: no

Heliport Communications

WX AWOS-3PT at MJX (3 nm W): 119.875 (732-797-2542)
WX AWOS-AV at N12 (10 nm N): 122.8 (732-363-6471)
WX AWOS-3PT at BLM (18 nm N): 121.625 (732-938-3330)

Nearby radio navigation aids

VOR radial/distance  VOR name  Freq  Var
CYNr069/10.5COYLE VORTAC113.4010W
GXUr122/17.7MC GUIRE VORTAC110.6012W
RBVr156/21.4ROBBINSVILLE VORTAC113.8010W
COLr199/24.5COLTS NECK VOR/DME115.4011W
ACYr040/31.3ATLANTIC CITY VORTAC108.6010W
PNEr116/(37.1)NORTH PHILADELPHIA VOR112.0010W
ARDr134/37.2YARDLEY VOR/DME108.2010W

 
NDB name  Hdg/Dist  Freq  Var  ID
LAKEHURST162/9.539611WNEL -. . .-..

Heliport Services

Runway Information

Helipad H1

Dimensions: 200 x 200 ft. / 61 x 61 m
Surface: asphalt, in good condition
Traffic pattern: leftleft

Heliport Ownership and Management from official FAA records

Ownership: Publicly-owned
Owner: TOWNSHIP OF BERKELEY
PO BOX B, PINEWALD-KESWICK RD
BAYVILLE, NJ 08721
Phone 908-341-6600
Manager: KARIN T. MICHELE, CHIEF OF POLICE
PO BOX B, PINEWALD-KESWICK RD
BAYVILLE, NJ 08721
Phone 908-341-6600
EXT 128

Additional Remarks

A52-H1 200 FT WIRES 1500 FT W & TREES SE & SSW.

Instrument Procedures

There are no published instrument procedures at 0NJ1.

Some nearby airports with instrument procedures:

KMJX - Ocean County Airport (3 nm W)
KNEL - Lakehurst Maxfield Field Airport (9 nm NW)
N12 - Lakewood Airport (10 nm N)
31E - Eagles Nest Airport (15 nm S)
KBLM - Monmouth Executive Airport (18 nm N)
KWRI - McGuire Field (Joint Base Mc Guire Dix Lakehurst) Airport (18 nm W)
 
Loc | Ops | Rwys | IFR | FBO | Links
Com | Nav | Svcs | Stats | Notes

AirNav Hotels Sweepstakes
 
Area around 0NJ1 (Berkeley Township Police Heliport)
 
Road maps at: MapQuest Bing Google
 
Aerial photo
No photo
 
Sectional chart

 
Airport distance calculator
Flying to Berkeley Township Police Heliport? Find the distance to fly.

From to 0NJ1

Sunrise and sunset
Times for 25-Feb-2018
 Local
(UTC-5)
 Zulu
(UTC)
Morning civil twilight06:1011:10
Sunrise06:3711:37
Sunset17:4322:43
Evening civil twilight18:1023:10

Current date and time
Zulu (UTC)  25-Feb-2018 22:23:25
Local (UTC-5)  25-Feb-2018 17:23:25
 
METAR
KMJX 
3nm NW 
AWOS-3 119.875 732-244-4450
252056Z AUTO 31006KT 10SM OVC004 08/07 A2999 RMK AO2 SLP160 6//// T00780072 53028 PNO $
KNEL 
8nm NW 
252200Z AUTO VRB03KT 3/4SM OVC004 08/08 A2998 RMK AO2 SFC VIS 7 SLP150 T00780078 PNO $
KBLM 
16nm N 
AWOS-3 121.625 732-938-3330
252156Z AUTO 34006KT 6SM BR OVC003 06/06 A2999 RMK AO2 SLP159 T00610056
KWRI 
17nm W 
252156Z AUTO 36005KT 10SM OVC004 08/07 A2996 RMK AO2 CIG 003 RWY18 SLP146 T00750069
TAF
KWRI 
17nm W 
252017Z 2520/2624 03006KT 9999 OVC004 510202 QNH2991INS BECMG 2523/2601 VRB06KT 9999 BKN010 OVC100 QNH2993INS BECMG 2601/2603 31006KT 9999 FEW012 BKN150 QNH2995INS BECMG 2617/2618 33006KT 9999 SCT150 QNH3009INS TX11/2521Z TN05/2610Z
NOTAMs
Click for the latest NOTAMs
NOTAMs are issued by the DoD/FAA and will open in a separate window not controlled by AirNav.

 

 
 

Would you like to see your business listed on this page?

 If your business provides an interesting product or service to pilots, flight crews, aircraft, or users of the Berkeley Township Police Heliport, you should consider listing it here.  To start the listing process, click on the button below
 
Add a business
 

Other Pages about Berkeley Township Police Heliport

Update a link
 
Copyright © AirNav, LLC. All rights reserved. Privacy Policy  Contact